sensor_id;sensor_type;location;lat;lon;timestamp;pressure;altitude;pressure_sealevel;temperature;humidity
9721;BME280;4899;42.644;23.366;2023-01-16T00:00:21;94133.53;;;0.97;100.00
9721;BME280;4899;42.644;23.366;2023-01-16T00:02:47;94132.81;;;1.01;100.00
9721;BME280;4899;42.644;23.366;2023-01-16T00:05:12;94121.19;;;1.05;100.00
9721;BME280;4899;42.644;23.366;2023-01-16T00:07:38;94127.78;;;1.06;100.00
9721;BME280;4899;42.644;23.366;2023-01-16T00:10:05;94127.53;;;1.08;100.00
9721;BME280;4899;42.644;23.366;2023-01-16T00:12:30;94127.56;;;1.28;100.00
9721;BME280;4899;42.644;23.366;2023-01-16T00:14:56;94128.09;;;1.40;100.00
9721;BME280;4899;42.644;23.366;2023-01-16T00:17:21;94124.31;;;1.58;100.00
9721;BME280;4899;42.644;23.366;2023-01-16T00:19:47;94132.69;;;1.64;100.00
9721;BME280;4899;42.644;23.366;2023-01-16T00:22:13;94133.19;;;1.71;100.00
9721;BME280;4899;42.644;23.366;2023-01-16T00:24:38;94137.25;;;1.67;100.00
9721;BME280;4899;42.644;23.366;2023-01-16T00:27:04;94130.13;;;1.69;100.00
9721;BME280;4899;42.644;23.366;2023-01-16T00:29:29;94119.75;;;1.55;100.00
9721;BME280;4899;42.644;23.366;2023-01-16T00:31:55;94121.00;;;1.42;100.00
9721;BME280;4899;42.644;23.366;2023-01-16T00:34:20;94111.63;;;1.38;100.00
9721;BME280;4899;42.644;23.366;2023-01-16T00:36:46;94106.28;;;1.34;100.00
9721;BME280;4899;42.644;23.366;2023-01-16T00:39:12;94094.13;;;1.26;100.00
9721;BME280;4899;42.644;23.366;2023-01-16T00:41:37;94097.94;;;1.29;100.00
9721;BME280;4899;42.644;23.366;2023-01-16T00:44:03;94097.91;;;1.18;100.00
9721;BME280;4899;42.644;23.366;2023-01-16T00:46:28;94097.16;;;1.23;100.00
9721;BME280;4899;42.644;23.366;2023-01-16T00:48:55;94081.94;;;1.23;100.00
9721;BME280;4899;42.644;23.366;2023-01-16T00:51:21;94086.03;;;1.24;100.00
9721;BME280;4899;42.644;23.366;2023-01-16T00:53:46;94082.91;;;0.97;100.00
9721;BME280;4899;42.644;23.366;2023-01-16T00:56:12;94083.41;;;0.83;100.00
9721;BME280;4899;42.644;23.366;2023-01-16T00:58:38;94089.47;;;0.77;100.00
9721;BME280;4899;42.644;23.366;2023-01-16T01:01:04;94093.72;;;0.72;100.00
9721;BME280;4899;42.644;23.366;2023-01-16T01:03:30;94093.94;;;0.55;100.00
9721;BME280;4899;42.644;23.366;2023-01-16T01:05:56;94088.38;;;0.58;100.00
9721;BME280;4899;42.644;23.366;2023-01-16T01:08:22;94085.38;;;0.71;100.00
9721;BME280;4899;42.644;23.366;2023-01-16T01:10:48;94084.41;;;0.77;100.00
9721;BME280;4899;42.644;23.366;2023-01-16T01:13:13;94089.75;;;0.91;100.00
9721;BME280;4899;42.644;23.366;2023-01-16T01:15:39;94086.97;;;0.98;100.00
9721;BME280;4899;42.644;23.366;2023-01-16T01:18:04;94093.34;;;1.10;100.00
9721;BME280;4899;42.644;23.366;2023-01-16T01:20:30;94089.06;;;1.26;100.00
9721;BME280;4899;42.644;23.366;2023-01-16T01:22:55;94087.50;;;1.15;100.00
9721;BME280;4899;42.644;23.366;2023-01-16T01:25:21;94079.88;;;0.89;100.00
9721;BME280;4899;42.644;23.366;2023-01-16T01:27:47;94089.91;;;0.69;100.00
9721;BME280;4899;42.644;23.366;2023-01-16T01:30:12;94092.94;;;0.56;100.00
9721;BME280;4899;42.644;23.366;2023-01-16T01:32:38;94073.63;;;0.40;100.00
9721;BME280;4899;42.644;23.366;2023-01-16T01:35:05;94069.44;;;0.71;100.00
9721;BME280;4899;42.644;23.366;2023-01-16T01:37:31;94067.19;;;0.79;100.00
9721;BME280;4899;42.644;23.366;2023-01-16T01:39:57;94068.16;;;0.68;100.00
9721;BME280;4899;42.644;23.366;2023-01-16T01:42:22;94065.59;;;0.58;100.00
9721;BME280;4899;42.644;23.366;2023-01-16T01:45:14;94063.84;;;0.69;100.00
9721;BME280;4899;42.644;23.366;2023-01-16T01:47:44;94053.22;;;0.67;100.00
9721;BME280;4899;42.644;23.366;2023-01-16T01:50:19;94044.38;;;0.69;100.00
9721;BME280;4899;42.644;23.366;2023-01-16T01:52:47;94042.38;;;0.76;100.00
9721;BME280;4899;42.644;23.366;2023-01-16T01:55:14;94035.81;;;0.75;100.00
9721;BME280;4899;42.644;23.366;2023-01-16T01:57:45;94045.69;;;0.82;100.00
9721;BME280;4899;42.644;23.366;2023-01-16T02:00:16;94047.97;;;0.93;100.00
9721;BME280;4899;42.644;23.366;2023-01-16T02:02:46;94052.56;;;1.17;100.00
9721;BME280;4899;42.644;23.366;2023-01-16T02:05:19;94027.25;;;1.27;100.00
9721;BME280;4899;42.644;23.366;2023-01-16T02:07:46;94027.25;;;1.37;100.00
9721;BME280;4899;42.644;23.366;2023-01-16T02:10:25;94036.38;;;1.43;100.00
9721;BME280;4899;42.644;23.366;2023-01-16T02:12:53;94030.03;;;1.46;100.00
9721;BME280;4899;42.644;23.366;2023-01-16T02:15:20;94029.28;;;1.40;100.00
9721;BME280;4899;42.644;23.366;2023-01-16T02:17:47;94027.50;;;1.05;100.00
9721;BME280;4899;42.644;23.366;2023-01-16T02:20:53;94022.66;;;0.83;100.00
9721;BME280;4899;42.644;23.366;2023-01-16T02:26:42;94023.34;;;0.64;100.00
9721;BME280;4899;42.644;23.366;2023-01-16T02:32:21;94017.00;;;0.51;100.00
9721;BME280;4899;42.644;23.366;2023-01-16T02:37:48;94002.03;;;0.44;100.00
9721;BME280;4899;42.644;23.366;2023-01-16T02:40:27;94009.88;;;0.48;100.00
9721;BME280;4899;42.644;23.366;2023-01-16T02:43:51;94012.91;;;0.45;100.00
9721;BME280;4899;42.644;23.366;2023-01-16T02:51:23;94009.09;;;0.37;100.00
9721;BME280;4899;42.644;23.366;2023-01-16T02:56:28;94016.94;;;0.36;100.00
9721;BME280;4899;42.644;23.366;2023-01-16T02:58:56;94007.06;;;0.29;100.00
9721;BME280;4899;42.644;23.366;2023-01-16T03:01:22;93989.56;;;0.22;100.00
9721;BME280;4899;42.644;23.366;2023-01-16T03:11:26;93985.81;;;0.25;100.00
9721;BME280;4899;42.644;23.366;2023-01-16T03:14:16;93992.38;;;0.26;100.00
9721;BME280;4899;42.644;23.366;2023-01-16T03:19:21;93991.03;;;0.03;100.00
9721;BME280;4899;42.644;23.366;2023-01-16T03:22:13;93974.78;;;-0.06;100.00
9721;BME280;4899;42.644;23.366;2023-01-16T03:28:07;93974.03;;;-0.07;100.00
9721;BME280;4899;42.644;23.366;2023-01-16T03:30:55;93962.91;;;-0.06;100.00
9721;BME280;4899;42.644;23.366;2023-01-16T03:36:10;93960.88;;;-0.14;100.00
9721;BME280;4899;42.644;23.366;2023-01-16T03:38:39;93958.50;;;-0.31;100.00
9721;BME280;4899;42.644;23.366;2023-01-16T03:41:13;93950.44;;;-0.27;100.00
9721;BME280;4899;42.644;23.366;2023-01-16T03:43:41;93935.50;;;-0.34;100.00
9721;BME280;4899;42.644;23.366;2023-01-16T03:46:12;93920.59;;;-0.36;100.00
9721;BME280;4899;42.644;23.366;2023-01-16T03:49:02;93924.91;;;-0.31;100.00
9721;BME280;4899;42.644;23.366;2023-01-16T03:51:32;93933.25;;;-0.31;100.00
9721;BME280;4899;42.644;23.366;2023-01-16T03:56:47;93917.06;;;-0.35;100.00
9721;BME280;4899;42.644;23.366;2023-01-16T03:59:15;93929.22;;;-0.26;100.00
9721;BME280;4899;42.644;23.366;2023-01-16T04:01:57;93922.41;;;-0.26;100.00
9721;BME280;4899;42.644;23.366;2023-01-16T04:09:26;93920.34;;;-0.29;100.00
9721;BME280;4899;42.644;23.366;2023-01-16T04:11:55;93914.78;;;-0.36;100.00
9721;BME280;4899;42.644;23.366;2023-01-16T04:14:24;93917.56;;;-0.38;100.00
9721;BME280;4899;42.644;23.366;2023-01-16T04:16:51;93918.06;;;-0.41;100.00
9721;BME280;4899;42.644;23.366;2023-01-16T04:19:18;93924.38;;;-0.38;100.00
9721;BME280;4899;42.644;23.366;2023-01-16T04:21:46;93914.75;;;-0.46;100.00
9721;BME280;4899;42.644;23.366;2023-01-16T04:24:13;93915.00;;;-0.43;100.00
9721;BME280;4899;42.644;23.366;2023-01-16T04:26:39;93909.97;;;-0.43;100.00
9721;BME280;4899;42.644;23.366;2023-01-16T04:29:05;93921.59;;;-0.37;100.00
9721;BME280;4899;42.644;23.366;2023-01-16T04:31:31;93919.06;;;-0.37;100.00
9721;BME280;4899;42.644;23.366;2023-01-16T04:33:56;93918.06;;;-0.41;100.00
9721;BME280;4899;42.644;23.366;2023-01-16T04:36:23;93916.53;;;-0.42;100.00
9721;BME280;4899;42.644;23.366;2023-01-16T04:38:48;93904.88;;;-0.48;100.00
9721;BME280;4899;42.644;23.366;2023-01-16T04:41:14;93900.84;;;-0.44;100.00
9721;BME280;4899;42.644;23.366;2023-01-16T04:43:59;93900.63;;;-0.42;100.00
9721;BME280;4899;42.644;23.366;2023-01-16T04:46:25;93895.06;;;-0.39;100.00
9721;BME280;4899;42.644;23.366;2023-01-16T04:48:50;93897.31;;;-0.43;100.00
9721;BME280;4899;42.644;23.366;2023-01-16T04:51:16;93896.81;;;-0.45;100.00
9721;BME280;4899;42.644;23.366;2023-01-16T04:53:42;93908.44;;;-0.44;100.00
9721;BME280;4899;42.644;23.366;2023-01-16T04:56:07;93895.28;;;-0.46;100.00
9721;BME280;4899;42.644;23.366;2023-01-16T04:58:32;93896.06;;;-0.45;100.00
9721;BME280;4899;42.644;23.366;2023-01-16T05:00:58;93891.75;;;-0.45;100.00
9721;BME280;4899;42.644;23.366;2023-01-16T05:03:23;93871.75;;;-0.56;100.00
9721;BME280;4899;42.644;23.366;2023-01-16T05:05:49;93889.25;;;-0.45;100.00
9721;BME280;4899;42.644;23.366;2023-01-16T05:08:15;93893.78;;;-0.47;100.00
9721;BME280;4899;42.644;23.366;2023-01-16T05:10:43;93883.63;;;-0.52;100.00
9721;BME280;4899;42.644;23.366;2023-01-16T05:13:09;93891.97;;;-0.51;100.00
9721;BME280;4899;42.644;23.366;2023-01-16T05:15:34;93897.00;;;-0.51;100.00
9721;BME280;4899;42.644;23.366;2023-01-16T05:18:00;93887.16;;;-0.53;100.00
9721;BME280;4899;42.644;23.366;2023-01-16T05:20:26;93885.16;;;-0.51;100.00
9721;BME280;4899;42.644;23.366;2023-01-16T05:22:52;93872.53;;;-0.51;100.00
9721;BME280;4899;42.644;23.366;2023-01-16T05:25:17;93871.75;;;-0.51;100.00
9721;BME280;4899;42.644;23.366;2023-01-16T05:27:43;93846.69;;;-0.68;100.00
9721;BME280;4899;42.644;23.366;2023-01-16T05:30:09;93877.38;;;-0.44;100.00
9721;BME280;4899;42.644;23.366;2023-01-16T05:32:35;93864.50;;;-0.43;100.00
9721;BME280;4899;42.644;23.366;2023-01-16T05:35:00;93875.09;;;-0.41;100.00
9721;BME280;4899;42.644;23.366;2023-01-16T05:37:27;93853.38;;;-0.47;100.00
9721;BME280;4899;42.644;23.366;2023-01-16T05:39:53;93847.56;;;-0.47;100.00
9721;BME280;4899;42.644;23.366;2023-01-16T05:42:23;93843.25;;;-0.47;100.00
9721;BME280;4899;42.644;23.366;2023-01-16T05:44:51;93854.88;;;-0.46;100.00
9721;BME280;4899;42.644;23.366;2023-01-16T05:47:18;93847.25;;;-0.51;100.00
9721;BME280;4899;42.644;23.366;2023-01-16T05:49:43;93852.31;;;-0.51;100.00
9721;BME280;4899;42.644;23.366;2023-01-16T05:52:09;93853.81;;;-0.60;100.00
9721;BME280;4899;42.644;23.366;2023-01-16T05:54:35;93863.38;;;-0.62;100.00
9721;BME280;4899;42.644;23.366;2023-01-16T05:57:00;93864.06;;;-0.77;100.00
9721;BME280;4899;42.644;23.366;2023-01-16T05:59:26;93856.91;;;-0.95;100.00
9721;BME280;4899;42.644;23.366;2023-01-16T06:01:51;93864.75;;;-0.91;100.00
9721;BME280;4899;42.644;23.366;2023-01-16T06:04:17;93859.47;;;-0.90;100.00
9721;BME280;4899;42.644;23.366;2023-01-16T06:06:45;93861.28;;;-0.80;100.00
9721;BME280;4899;42.644;23.366;2023-01-16T06:09:11;93847.97;;;-0.71;100.00
9721;BME280;4899;42.644;23.366;2023-01-16T06:11:36;93846.97;;;-0.65;100.00
9721;BME280;4899;42.644;23.366;2023-01-16T06:14:02;93849.75;;;-0.66;100.00
9721;BME280;4899;42.644;23.366;2023-01-16T06:16:30;93841.19;;;-0.55;100.00
9721;BME280;4899;42.644;23.366;2023-01-16T06:18:56;93834.69;;;-0.46;100.00
9721;BME280;4899;42.644;23.366;2023-01-16T06:21:21;93835.19;;;-0.44;100.00
9721;BME280;4899;42.644;23.366;2023-01-16T06:23:47;93837.72;;;-0.34;100.00
9721;BME280;4899;42.644;23.366;2023-01-16T06:26:12;93845.38;;;-0.23;100.00
9721;BME280;4899;42.644;23.366;2023-01-16T06:28:38;93849.41;;;-0.17;100.00
9721;BME280;4899;42.644;23.366;2023-01-16T06:31:05;93864.34;;;-0.06;100.00
9721;BME280;4899;42.644;23.366;2023-01-16T06:33:31;93854.78;;;0.02;100.00
9721;BME280;4899;42.644;23.366;2023-01-16T06:35:56;93855.28;;;0.14;100.00
9721;BME280;4899;42.644;23.366;2023-01-16T06:38:22;93849.97;;;0.15;100.00
9721;BME280;4899;42.644;23.366;2023-01-16T06:40:48;93867.22;;;0.28;100.00
9721;BME280;4899;42.644;23.366;2023-01-16T06:43:14;93871.25;;;0.35;100.00
9721;BME280;4899;42.644;23.366;2023-01-16T06:45:42;93868.72;;;0.45;100.00
9721;BME280;4899;42.644;23.366;2023-01-16T06:48:09;93867.47;;;0.57;100.00
9721;BME280;4899;42.644;23.366;2023-01-16T06:50:35;93862.91;;;0.70;100.00
9721;BME280;4899;42.644;23.366;2023-01-16T06:53:00;93855.84;;;0.82;100.00
9721;BME280;4899;42.644;23.366;2023-01-16T06:55:25;93844.69;;;1.03;100.00
9721;BME280;4899;42.644;23.366;2023-01-16T06:57:51;93824.63;;;1.17;100.00
9721;BME280;4899;42.644;23.366;2023-01-16T07:00:17;93834.22;;;1.35;100.00
9721;BME280;4899;42.644;23.366;2023-01-16T07:02:42;93843.31;;;1.41;100.00
9721;BME280;4899;42.644;23.366;2023-01-16T07:05:11;93850.88;;;1.57;100.00
9721;BME280;4899;42.644;23.366;2023-01-16T07:07:36;93846.75;;;1.66;100.00
9721;BME280;4899;42.644;23.366;2023-01-16T07:10:03;93852.31;;;1.78;100.00
9721;BME280;4899;42.644;23.366;2023-01-16T07:12:29;93849.44;;;1.25;100.00
9721;BME280;4899;42.644;23.366;2023-01-16T07:14:54;93862.16;;;1.00;100.00
9721;BME280;4899;42.644;23.366;2023-01-16T07:17:39;93851.03;;;0.85;100.00
9721;BME280;4899;42.644;23.366;2023-01-16T07:20:23;93844.91;;;1.12;100.00
9721;BME280;4899;42.644;23.366;2023-01-16T07:23:24;93837.28;;;1.27;100.00
9721;BME280;4899;42.644;23.366;2023-01-16T07:25:51;93851.41;;;1.38;100.00
9721;BME280;4899;42.644;23.366;2023-01-16T07:28:18;93838.44;;;1.55;100.00
9721;BME280;4899;42.644;23.366;2023-01-16T07:30:45;93844.69;;;1.73;100.00
9721;BME280;4899;42.644;23.366;2023-01-16T07:33:11;93835.53;;;1.82;100.00
9721;BME280;4899;42.644;23.366;2023-01-16T07:35:36;93835.97;;;1.94;100.00
9721;BME280;4899;42.644;23.366;2023-01-16T07:38:02;93832.41;;;2.00;100.00
9721;BME280;4899;42.644;23.366;2023-01-16T07:40:28;93827.91;;;2.31;100.00
9721;BME280;4899;42.644;23.366;2023-01-16T07:42:53;93827.06;;;2.41;100.00
9721;BME280;4899;42.644;23.366;2023-01-16T07:45:19;93815.28;;;2.21;100.00
9721;BME280;4899;42.644;23.366;2023-01-16T07:47:44;93812.38;;;1.99;100.00
9721;BME280;4899;42.644;23.366;2023-01-16T07:50:10;93810.53;;;1.65;100.00
9721;BME280;4899;42.644;23.366;2023-01-16T07:52:36;93828.97;;;1.81;100.00
9721;BME280;4899;42.644;23.366;2023-01-16T07:55:01;93825.16;;;1.83;100.00
9721;BME280;4899;42.644;23.366;2023-01-16T07:57:27;93812.16;;;1.90;100.00
9721;BME280;4899;42.644;23.366;2023-01-16T07:59:53;93804.53;;;2.00;100.00
9721;BME280;4899;42.644;23.366;2023-01-16T08:02:19;93802.03;;;2.29;100.00
9721;BME280;4899;42.644;23.366;2023-01-16T08:04:45;93792.88;;;2.62;100.00
9721;BME280;4899;42.644;23.366;2023-01-16T08:07:11;93799.63;;;2.43;100.00
9721;BME280;4899;42.644;23.366;2023-01-16T08:09:36;93788.28;;;2.35;100.00
9721;BME280;4899;42.644;23.366;2023-01-16T08:12:02;93790.84;;;2.64;100.00
9721;BME280;4899;42.644;23.366;2023-01-16T08:14:28;93788.63;;;2.58;100.00
9721;BME280;4899;42.644;23.366;2023-01-16T08:16:53;93785.19;;;2.72;100.00
9721;BME280;4899;42.644;23.366;2023-01-16T08:19:19;93799.53;;;2.58;100.00
9721;BME280;4899;42.644;23.366;2023-01-16T08:21:44;93800.56;;;2.57;100.00
9721;BME280;4899;42.644;23.366;2023-01-16T08:24:10;93817.06;;;2.55;100.00
9721;BME280;4899;42.644;23.366;2023-01-16T08:26:38;93826.00;;;2.47;100.00
9721;BME280;4899;42.644;23.366;2023-01-16T08:29:03;93816.78;;;2.27;100.00
9721;BME280;4899;42.644;23.366;2023-01-16T08:31:29;93812.38;;;2.38;100.00
9721;BME280;4899;42.644;23.366;2023-01-16T08:33:56;93808.66;;;2.59;100.00
9721;BME280;4899;42.644;23.366;2023-01-16T08:36:21;93806.81;;;2.65;100.00
9721;BME280;4899;42.644;23.366;2023-01-16T08:38:48;93793.19;;;2.85;100.00
9721;BME280;4899;42.644;23.366;2023-01-16T08:41:15;93780.88;;;2.97;100.00
9721;BME280;4899;42.644;23.366;2023-01-16T08:43:59;93787.22;;;3.23;100.00
9721;BME280;4899;42.644;23.366;2023-01-16T08:46:54;93778.59;;;3.24;100.00
9721;BME280;4899;42.644;23.366;2023-01-16T08:49:39;93762.66;;;3.37;100.00
9721;BME280;4899;42.644;23.366;2023-01-16T08:52:24;93762.31;;;3.25;100.00
9721;BME280;4899;42.644;23.366;2023-01-16T08:54:52;93749.81;;;3.29;100.00
9721;BME280;4899;42.644;23.366;2023-01-16T08:57:19;93769.19;;;3.44;100.00
9721;BME280;4899;42.644;23.366;2023-01-16T08:59:45;93766.84;;;3.28;100.00
9721;BME280;4899;42.644;23.366;2023-01-16T09:02:10;93767.81;;;3.08;100.00
9721;BME280;4899;42.644;23.366;2023-01-16T09:04:36;93772.84;;;3.14;100.00
9721;BME280;4899;42.644;23.366;2023-01-16T09:07:02;93756.22;;;2.97;100.00
9721;BME280;4899;42.644;23.366;2023-01-16T09:09:27;93758.75;;;3.02;100.00
9721;BME280;4899;42.644;23.366;2023-01-16T09:11:56;93749.81;;;3.05;100.00
9721;BME280;4899;42.644;23.366;2023-01-16T09:14:40;93736.84;;;3.06;100.00
9721;BME280;4899;42.644;23.366;2023-01-16T09:17:06;93742.25;;;3.00;100.00
9721;BME280;4899;42.644;23.366;2023-01-16T09:19:33;93739.00;;;3.18;100.00
9721;BME280;4899;42.644;23.366;2023-01-16T09:21:59;93729.13;;;3.35;100.00
9721;BME280;4899;42.644;23.366;2023-01-16T09:24:24;93741.84;;;3.35;100.00
9721;BME280;4899;42.644;23.366;2023-01-16T09:26:50;93736.38;;;3.47;100.00
9721;BME280;4899;42.644;23.366;2023-01-16T09:29:16;93720.78;;;3.54;100.00
9721;BME280;4899;42.644;23.366;2023-01-16T09:31:41;93723.81;;;3.75;100.00
9721;BME280;4899;42.644;23.366;2023-01-16T09:34:07;93718.47;;;3.90;100.00
9721;BME280;4899;42.644;23.366;2023-01-16T09:36:32;93709.72;;;4.15;100.00
9721;BME280;4899;42.644;23.366;2023-01-16T09:38:58;93702.97;;;4.24;100.00
9721;BME280;4899;42.644;23.366;2023-01-16T09:41:24;93696.22;;;4.00;100.00
9721;BME280;4899;42.644;23.366;2023-01-16T09:44:11;93726.28;;;4.12;100.00
9721;BME280;4899;42.644;23.366;2023-01-16T09:46:43;93708.19;;;4.14;100.00
9721;BME280;4899;42.644;23.366;2023-01-16T09:49:20;93710.13;;;4.22;100.00
9721;BME280;4899;42.644;23.366;2023-01-16T09:51:52;93707.91;;;4.01;100.00
9721;BME280;4899;42.644;23.366;2023-01-16T09:54:46;93684.44;;;4.05;100.00
9721;BME280;4899;42.644;23.366;2023-01-16T09:57:34;93683.69;;;4.04;100.00
9721;BME280;4899;42.644;23.366;2023-01-16T10:00:21;93689.59;;;4.32;100.00
9721;BME280;4899;42.644;23.366;2023-01-16T10:02:47;93675.09;;;4.46;100.00
9721;BME280;4899;42.644;23.366;2023-01-16T10:05:13;93678.94;;;4.44;100.00
9721;BME280;4899;42.644;23.366;2023-01-16T10:13:18;93668.97;;;4.75;100.00
9721;BME280;4899;42.644;23.366;2023-01-16T10:19:09;93662.09;;;4.61;100.00
9721;BME280;4899;42.644;23.366;2023-01-16T10:27:43;93635.88;;;4.75;100.00
9721;BME280;4899;42.644;23.366;2023-01-16T10:30:20;93633.06;;;5.12;100.00
9721;BME280;4899;42.644;23.366;2023-01-16T10:33:02;93639.38;;;5.29;100.00
9721;BME280;4899;42.644;23.366;2023-01-16T10:35:35;93617.38;;;5.19;100.00
9721;BME280;4899;42.644;23.366;2023-01-16T10:38:28;93617.78;;;5.48;100.00
9721;BME280;4899;42.644;23.366;2023-01-16T10:41:01;93594.53;;;5.50;100.00
9721;BME280;4899;42.644;23.366;2023-01-16T10:43:46;93610.97;;;5.44;100.00
9721;BME280;4899;42.644;23.366;2023-01-16T10:46:31;93607.44;;;5.31;100.00
9721;BME280;4899;42.644;23.366;2023-01-16T10:49:16;93606.53;;;5.27;100.00
9721;BME280;4899;42.644;23.366;2023-01-16T10:51:58;93598.47;;;5.34;100.00
9721;BME280;4899;42.644;23.366;2023-01-16T10:54:25;93580.28;;;5.49;100.00
9721;BME280;4899;42.644;23.366;2023-01-16T10:56:51;93590.81;;;5.34;100.00
9721;BME280;4899;42.644;23.366;2023-01-16T10:59:18;93557.66;;;5.56;100.00
9721;BME280;4899;42.644;23.366;2023-01-16T11:01:44;93570.28;;;5.61;100.00
9721;BME280;4899;42.644;23.366;2023-01-16T11:04:11;93554.75;;;5.71;100.00
9721;BME280;4899;42.644;23.366;2023-01-16T11:06:38;93531.53;;;5.81;100.00
9721;BME280;4899;42.644;23.366;2023-01-16T11:09:17;93549.06;;;5.74;100.00
9721;BME280;4899;42.644;23.366;2023-01-16T11:11:44;93531.53;;;5.81;100.00
9721;BME280;4899;42.644;23.366;2023-01-16T11:14:35;93527.19;;;5.82;100.00
9721;BME280;4899;42.644;23.366;2023-01-16T11:17:30;93535.97;;;5.90;100.00
9721;BME280;4899;42.644;23.366;2023-01-16T11:20:25;93541.44;;;5.83;100.00
9721;BME280;4899;42.644;23.366;2023-01-16T11:22:59;93494.72;;;5.96;100.00
9721;BME280;4899;42.644;23.366;2023-01-16T11:25:28;93523.66;;;5.69;100.00
9721;BME280;4899;42.644;23.366;2023-01-16T11:27:57;93531.16;;;5.66;100.00
9721;BME280;4899;42.644;23.366;2023-01-16T11:30:33;93508.09;;;6.02;100.00
9721;BME280;4899;42.644;23.366;2023-01-16T11:33:02;93520.13;;;6.10;100.00
9721;BME280;4899;42.644;23.366;2023-01-16T11:35:34;93523.78;;;6.26;100.00
9721;BME280;4899;42.644;23.366;2023-01-16T11:38:01;93517.69;;;6.53;100.00
9721;BME280;4899;42.644;23.366;2023-01-16T11:40:45;93507.31;;;6.50;100.00
9721;BME280;4899;42.644;23.366;2023-01-16T11:43:17;93514.41;;;6.70;100.00
9721;BME280;4899;42.644;23.366;2023-01-16T11:46:10;93511.56;;;6.80;100.00
9721;BME280;4899;42.644;23.366;2023-01-16T11:48:44;93501.03;;;6.90;100.00
9721;BME280;4899;42.644;23.366;2023-01-16T11:51:18;93493.81;;;7.27;100.00
9721;BME280;4899;42.644;23.366;2023-01-16T11:53:46;93506.44;;;7.15;100.00
9721;BME280;4899;42.644;23.366;2023-01-16T12:02:42;93486.38;;;7.51;100.00
9721;BME280;4899;42.644;23.366;2023-01-16T12:05:20;93463.47;;;8.31;100.00
9721;BME280;4899;42.644;23.366;2023-01-16T12:13:57;93462.50;;;9.07;100.00
9721;BME280;4899;42.644;23.366;2023-01-16T12:23:00;93457.41;;;9.52;100.00
9721;BME280;4899;42.644;23.366;2023-01-16T12:41:52;93434.22;;;7.73;100.00
9721;BME280;4899;42.644;23.366;2023-01-16T12:58:12;93416.56;;;6.78;100.00
9721;BME280;4899;42.644;23.366;2023-01-16T13:03:36;93398.38;;;6.62;100.00
9721;BME280;4899;42.644;23.366;2023-01-16T13:06:07;93368.47;;;6.63;100.00
9721;BME280;4899;42.644;23.366;2023-01-16T13:08:40;93380.94;;;6.64;100.00
9721;BME280;4899;42.644;23.366;2023-01-16T13:11:23;93378.97;;;6.61;100.00
9721;BME280;4899;42.644;23.366;2023-01-16T13:14:10;93380.81;;;6.69;100.00
9721;BME280;4899;42.644;23.366;2023-01-16T13:16:42;93371.03;;;6.71;100.00
9721;BME280;4899;42.644;23.366;2023-01-16T13:19:20;93358.38;;;6.66;100.00
9721;BME280;4899;42.644;23.366;2023-01-16T13:24:26;93357.94;;;6.64;100.00
9721;BME280;4899;42.644;23.366;2023-01-16T13:27:02;93344.28;;;6.60;100.00
9721;BME280;4899;42.644;23.366;2023-01-16T13:30:04;93314.09;;;6.54;100.00
9721;BME280;4899;42.644;23.366;2023-01-16T13:32:42;93345.91;;;6.65;100.00
9721;BME280;4899;42.644;23.366;2023-01-16T13:35:23;93332.28;;;6.52;100.00
9721;BME280;4899;42.644;23.366;2023-01-16T13:43:34;93327.44;;;6.42;100.00
9721;BME280;4899;42.644;23.366;2023-01-16T13:46:19;93331.66;;;6.38;100.00
9721;BME280;4899;42.644;23.366;2023-01-16T13:48:51;93349.56;;;6.29;100.00
9721;BME280;4899;42.644;23.366;2023-01-16T13:51:18;93335.00;;;6.30;100.00
9721;BME280;4899;42.644;23.366;2023-01-16T13:53:50;93334.25;;;6.29;100.00
9721;BME280;4899;42.644;23.366;2023-01-16T13:56:21;93318.31;;;6.15;100.00
9721;BME280;4899;42.644;23.366;2023-01-16T13:58:57;93312.78;;;5.96;100.00
9721;BME280;4899;42.644;23.366;2023-01-16T14:04:11;93298.47;;;5.95;100.00
9721;BME280;4899;42.644;23.366;2023-01-16T14:06:55;93302.81;;;5.85;100.00
9721;BME280;4899;42.644;23.366;2023-01-16T14:12:42;93297.84;;;5.89;100.00
9721;BME280;4899;42.644;23.366;2023-01-16T14:15:21;93305.03;;;5.70;100.00
9721;BME280;4899;42.644;23.366;2023-01-16T14:23:28;93331.03;;;5.72;100.00
9721;BME280;4899;42.644;23.366;2023-01-16T14:26:40;93321.72;;;5.76;100.00
9721;BME280;4899;42.644;23.366;2023-01-16T14:29:28;93321.81;;;5.62;100.00
9721;BME280;4899;42.644;23.366;2023-01-16T14:32:02;93316.00;;;5.70;100.00
9721;BME280;4899;42.644;23.366;2023-01-16T14:34:38;93325.16;;;5.88;100.00
9721;BME280;4899;42.644;23.366;2023-01-16T14:37:35;93323.25;;;5.94;100.00
9721;BME280;4899;42.644;23.366;2023-01-16T14:42:50;93321.00;;;5.93;100.00
9721;BME280;4899;42.644;23.366;2023-01-16T14:45:39;93294.22;;;5.64;100.00
9721;BME280;4899;42.644;23.366;2023-01-16T14:54:07;93303.75;;;5.33;100.00
9721;BME280;4899;42.644;23.366;2023-01-16T14:57:00;93297.00;;;5.28;100.00
9721;BME280;4899;42.644;23.366;2023-01-16T14:59:33;93309.59;;;5.24;100.00
9721;BME280;4899;42.644;23.366;2023-01-16T15:02:14;93301.66;;;4.95;100.00
9721;BME280;4899;42.644;23.366;2023-01-16T15:10:28;93288.19;;;4.63;100.00
9721;BME280;4899;42.644;23.366;2023-01-16T15:13:15;93301.84;;;4.68;100.00
9721;BME280;4899;42.644;23.366;2023-01-16T15:15:47;93286.19;;;4.52;100.00
9721;BME280;4899;42.644;23.366;2023-01-16T15:18:17;93288.94;;;4.64;100.00
9721;BME280;4899;42.644;23.366;2023-01-16T15:21:02;93283.16;;;4.72;100.00
9721;BME280;4899;42.644;23.366;2023-01-16T15:23:46;93289.63;;;4.47;100.00
9721;BME280;4899;42.644;23.366;2023-01-16T15:32:13;93281.84;;;4.52;100.00
9721;BME280;4899;42.644;23.366;2023-01-16T15:34:43;93281.41;;;4.50;100.00
9721;BME280;4899;42.644;23.366;2023-01-16T15:37:27;93299.34;;;4.23;100.00
9721;BME280;4899;42.644;23.366;2023-01-16T15:39:54;93308.88;;;4.40;100.00
9721;BME280;4899;42.644;23.366;2023-01-16T15:42:24;93309.63;;;4.18;100.00
9721;BME280;4899;42.644;23.366;2023-01-16T15:45:25;93318.59;;;4.15;100.00
9721;BME280;4899;42.644;23.366;2023-01-16T15:53:17;93306.50;;;4.21;100.00
9721;BME280;4899;42.644;23.366;2023-01-16T15:55:47;93323.72;;;4.01;100.00
9721;BME280;4899;42.644;23.366;2023-01-16T15:58:15;93303.56;;;4.05;100.00
9721;BME280;4899;42.644;23.366;2023-01-16T16:00:43;93311.47;;;4.04;100.00